CTSO2: Bird Creek At Catoosa

Data processed at Thu Jan 04 2018 23:31


All information presented herein is the property of the government of the United States of America and may be revised or deleted at any time without prior notice.
Dissemination of this information without the expressed written consent of the Public Affairs Office, Tulsa District U.S. Army Corps of Engineers is strictly prohibited.
These data are gathered electronically and, as presented, have not undergone any form of quality control. These data are not guaranteed to be valid or correct.
Go to home page.
Go to station list.

Upstream stations:

Downstream station:
Previous Day
Next Day
Current Day
    
SHEF ID:       CTSO2     Bird Ck at State Highway 266 nea
STATION TYPE:  

                STAGE  STAGE(2)  RIV-FLOW  WTR-TEMP   DIS-OXY        PH   CONDUCT  BAT-LOAD
                   ft        ft       cfs         F      mg/l        su   umho/cm      volt
              Ccp-Rev   Ccp-Rev   Ccp-Rev   Ccp-Rev   Ccp-Rev   Ccp-Rev   Ccp-Rev   Ccp-Rev
(US/Central)
01/02 00:00      3.90      3.81        98     37.09     12.69      7.96       549     12.65
01/02 01:00      3.90      3.81        98     36.84     12.73      7.96       544     12.65
01/02 02:00      3.90      3.82        98     36.55     12.80      7.96       541     12.65
01/02 03:00      3.91      3.83        99     36.32     12.86      7.98       539     12.65
01/02 04:00      3.92      3.84       101     36.21     12.93      7.98       536     12.57
01/02 05:00      3.91      3.83        99     36.14     12.99      7.98       533     12.57
01/02 06:00      3.88      3.81        94     36.14     13.03      7.98       533     12.57
01/02 07:00      3.89      3.77        96     36.18     13.06      7.99       529     12.57
01/02 08:00      3.88      3.75        94     36.28     13.06      7.99       528     12.57
01/02 09:00      3.83      3.72        87     36.48     13.03      7.98       529     12.65
01/02 10:00      3.85      3.73        90     36.77     12.99      7.97       529     12.97
01/02 11:00      3.86      3.77        91     37.08     12.90      7.96       532     13.21
01/02 12:00      3.86      3.79        91     37.47     12.83      7.94       534     13.44
01/02 13:00      3.91      3.82        99     37.83     12.77      7.94       537     13.37
01/02 14:00      3.92      3.84       101     38.17     12.75      7.93       540     13.37
01/02 15:00      3.90      3.84        98     38.26     12.72      7.92       540     13.37
01/02 16:00      3.92      3.73       101     38.43     12.68      7.92       541     13.21
01/02 17:00      3.93      3.88       103     38.50     12.68      7.91       540     12.97
01/02 18:00      3.95      3.89       106     38.46     12.68      7.91       539     12.81
01/02 19:00      3.96      3.89       108     38.41     12.67      7.91       536     12.81
01/02 20:00      3.96      3.88       108     38.35     12.63      7.91       546     12.73
01/02 21:00      3.99      3.88       113     38.39     12.57      7.90       564     12.73
01/02 22:00      3.96      3.89       108     38.44     12.50      7.89       574     12.73
01/02 23:00      3.94      3.89       104     38.41     12.49      7.89       565     12.65